createdAt,value
2019-04-21T00:15:09.750Z,0.00
2019-04-21T00:25:13.975Z,0.00
2019-04-21T00:35:05.643Z,0.00
2019-04-21T00:45:13.107Z,0.00
2019-04-21T00:55:29.613Z,0.00
2019-04-21T01:05:21.436Z,0.00
2019-04-21T01:15:26.419Z,0.00
2019-04-21T01:25:11.134Z,0.00
2019-04-21T01:35:19.335Z,0.00
2019-04-21T01:45:21.861Z,0.05
2019-04-21T01:55:17.735Z,0.03
2019-04-21T02:05:29.405Z,0.05
2019-04-21T02:15:23.932Z,0.01
2019-04-21T02:25:21.790Z,0.04
2019-04-21T02:55:21.960Z,0.04
2019-04-21T03:15:24.493Z,0.08
2019-04-21T04:05:34.595Z,0.00
2019-04-21T04:15:24.398Z,0.01
2019-04-21T04:25:27.816Z,0.00
2019-04-21T04:35:34.098Z,0.00
2019-04-21T04:55:22.071Z,0.01
2019-04-21T05:05:30.097Z,0.05
2019-04-21T05:25:15.191Z,0.00
2019-04-21T05:35:20.089Z,0.00
2019-04-21T05:45:16.018Z,0.02
2019-04-21T05:55:24.667Z,0.00
2019-04-21T06:05:34.985Z,0.00
2019-04-21T06:15:27.582Z,0.00
2019-04-21T06:25:31.535Z,0.02
2019-04-21T06:35:28.925Z,0.00
2019-04-21T06:45:31.789Z,0.23
2019-04-21T06:55:20.464Z,0.22
2019-04-21T07:05:17.097Z,0.33
2019-04-21T07:15:19.794Z,0.36
2019-04-21T07:25:22.345Z,0.47
2019-04-21T07:35:20.786Z,0.51
2019-04-21T07:45:13.347Z,0.47
2019-04-21T07:55:18.705Z,0.51
2019-04-21T08:05:22.811Z,0.70
2019-04-21T08:25:14.949Z,1.02
2019-04-21T08:35:49.723Z,1.24
2019-04-21T08:45:22.600Z,0.95
2019-04-21T08:55:22.504Z,0.92
2019-04-21T09:05:17.786Z,1.05
2019-04-21T09:15:20.245Z,0.87
2019-04-21T09:25:19.613Z,0.67
2019-04-21T09:35:03.382Z,1.44
2019-04-21T09:45:02.609Z,1.34
2019-04-21T09:55:04.781Z,1.59
2019-04-21T10:04:59.575Z,1.30
2019-04-21T10:14:59.764Z,2.65
2019-04-21T10:25:00.545Z,2.71
2019-04-21T10:34:59.613Z,2.14
2019-04-21T10:45:00.993Z,1.73
2019-04-21T10:55:08.410Z,2.28
2019-04-21T11:05:00.732Z,2.39
2019-04-21T11:14:59.565Z,2.19
2019-04-21T11:25:00.701Z,1.76
2019-04-21T11:34:59.606Z,2.95
2019-04-21T11:45:00.639Z,2.19
2019-04-21T11:55:00.542Z,2.50
2019-04-21T12:04:59.495Z,2.36
2019-04-21T12:14:59.940Z,2.05
2019-04-21T12:25:00.764Z,1.72
2019-04-21T12:34:59.824Z,1.39
2019-04-21T12:44:59.604Z,2.38
2019-04-21T12:54:59.718Z,1.73
2019-04-21T13:04:59.775Z,1.33
2019-04-21T13:15:00.737Z,1.90
2019-04-21T13:25:00.026Z,1.35
2019-04-21T13:35:01.107Z,2.34
2019-04-21T13:45:00.953Z,1.20
2019-04-21T13:54:59.557Z,1.43
2019-04-21T14:04:59.643Z,1.20
2019-04-21T14:15:00.100Z,1.38
2019-04-21T14:24:59.800Z,1.17
2019-04-21T14:35:00.836Z,1.47
2019-04-21T14:45:00.861Z,1.27
2019-04-21T14:55:00.669Z,1.48
2019-04-21T15:04:59.879Z,1.69
2019-04-21T15:15:00.183Z,1.02
2019-04-21T15:25:00.530Z,1.61
2019-04-21T15:35:00.303Z,1.59
2019-04-21T15:45:00.835Z,1.78
2019-04-21T15:55:00.820Z,1.02
2019-04-21T16:05:01.007Z,0.87
2019-04-21T16:15:00.666Z,0.83
2019-04-21T16:25:00.895Z,1.20
2019-04-21T16:35:03.925Z,0.88
2019-04-21T16:45:00.873Z,0.92
2019-04-21T16:55:00.244Z,0.81
2019-04-21T17:05:00.430Z,0.87
2019-04-21T17:15:16.748Z,0.94
2019-04-21T17:25:00.344Z,0.66
2019-04-21T17:34:59.641Z,0.68
2019-04-21T17:44:59.708Z,0.58
2019-04-21T17:55:08.875Z,0.36
2019-04-21T18:05:21.476Z,0.01
2019-04-21T18:15:08.325Z,0.00
2019-04-21T18:25:05.706Z,0.00
2019-04-21T18:35:02.441Z,0.00
2019-04-21T18:55:12.921Z,0.00
2019-04-21T19:05:04.454Z,0.00
2019-04-21T19:15:15.876Z,0.00
2019-04-21T19:35:01.988Z,0.00
2019-04-21T19:45:17.922Z,0.03
2019-04-21T19:55:00.584Z,0.01
2019-04-21T20:05:05.904Z,0.03
2019-04-21T20:25:07.734Z,0.01
2019-04-21T20:35:26.629Z,0.26
2019-04-21T20:45:28.858Z,0.11
2019-04-21T20:55:10.724Z,0.02
2019-04-21T21:05:10.473Z,0.03
2019-04-21T21:15:10.111Z,0.00
2019-04-21T21:25:19.325Z,0.00
2019-04-21T21:35:14.166Z,0.00
2019-04-21T21:45:07.834Z,0.00
2019-04-21T21:54:59.665Z,0.00
2019-04-21T22:05:07.713Z,0.00
2019-04-21T22:15:02.373Z,0.00
2019-04-21T22:25:09.648Z,0.00
2019-04-21T22:35:04.777Z,0.00
2019-04-21T22:45:00.691Z,0.00
2019-04-21T22:55:01.576Z,0.00
2019-04-21T23:05:00.533Z,0.03
2019-04-21T23:15:07.816Z,0.00
2019-04-21T23:25:15.196Z,0.00
2019-04-21T23:35:09.253Z,0.00
2019-04-21T23:45:01.342Z,0.00
2019-04-21T23:55:00.985Z,0.02
